ADDS TAF Board (Experimental) INFO Settings
IDs: Format: Expanded Condensed

KLAX - Los Angeles Intl, CA, US

Issued at 0857 UTC 28 Jul 2015
Updated at: 1022 UTC 28 Jul 2015
Time0953Z 28/11Z 28/12Z 28/13Z 28/14Z 28/15Z 28/16Z 28/17Z 28/18Z 28/19Z 28/20Z 28/21Z 28/22Z 28/23Z
Type OBS PRVL PRVL PRVL PRVL PRVL PRVL PRVL PRVL PRVL PRVL PRVL PRVL PRVL
VIS 10 >6 >6 >6 >6 >6 >6 >6 >6 >6 >6 >6 >6 >6
CIG 12 12 12 12 12 12 12 -- -- -- -- -- -- --
Cover BKN OVC OVC OVC OVC OVC OVC SKC SKC SKC SKC SKC SKC SKC
FltCat MVFR MVFR MVFR MVFR MVFR MVFR MVFR VFR VFR VFR VFR VFR VFR VFR
WX -- -- -- -- -- -- -- -- -- -- -- -- -- --
WDir VRB 250 250 250 250 250 250 260 260 260 260 260 260 260
WSpd 0 7 7 7 7 7 7 12 12 12 12 12 12 12
WGst -- -- -- -- -- -- -- -- -- -- -- -- -- --
R06/24
XWnd VRB -2 -2 -2 -2 -2 -2 -1 -1 -1 -1 -1 -1 -1
HWnd VRB -7 -7 -7 -7 -7 -7 -12 -12 -12 -12 -12 -12 -12
R07/25
XWnd VRB -2 -2 -2 -2 -2 -2 -1 -1 -1 -1 -1 -1 -1
HWnd VRB -7 -7 -7 -7 -7 -7 -12 -12 -12 -12 -12 -12 -12

NOTE: TEMPO conditions in [brackets]. Keep in mind TEMPO conditions might be better (lower impact) than prevailing conditions.

Raw TAF
KLAX 280857Z 2809/2912 25007KT P6SM OVC012
  FM281700 26012KT P6SM SKC
  FM290400 VRB03KT P6SM SKC
  FM290900 VRB03KT P6SM OVC010


Raw METAR
KLAX 280953Z 00000KT 10SM BKN012 19/17 A2988 RMK AO2 SLP116 T01940167
KLAX 280853Z 00000KT 10SM BKN012 19/17 A2989 RMK AO2 SLP118 BKN V SCT T01940172 58008
KLAX 280753Z 27004KT 10SM SCT012 19/17 A2990 RMK AO2 SLP122 T01940172 402440194

METAR Board
Radar Display
Forecast Discussion

TAF Board Legend

Potential Impact
Threat None Slight Moderate High
Visibility (sm) ≥5.1 5.1>X≥3 3>X≥1 <1
Ceiling (100 ft) ≥30.1 30.1>X≥10 10>X≥5 <5
Wind Speed (kt) <10 10≤X<20 20≤X<30 ≥30
Wind Gust (kt) <15 15≤X<25 25≤X<35 ≥35
Weather No Wx Reported VCTS,-TS,-FZRA,SN TS,FZRA +TS,+FZRA,+SN